Time;durP1;ratioP1;P1;durP2;ratioP2;P2;SDS_P1;SDS_P2;PMS_P1;PMS_P2;Temp;Humidity;BMP_temperature;BMP_pressure;BME280_temperature;BME280_humidity;BME280_pressure;Samples;Min_cycle;Max_cycle;Signal;HPM_P1;HPM_P2
2023/08/12 00:01:04;;;;;;;1.55;1.23;;;20.40;99.90;;;;;;5053023;28;20580;-68
2023/08/12 00:03:32;;;;;;;1.80;1.45;;;20.50;99.90;;;;;;5060869;28;20277;-69
2023/08/12 00:06:01;;;;;;;1.40;1.30;;;20.50;99.90;;;;;;5053073;28;20295;-68
2023/08/12 00:08:29;;;;;;;1.85;1.40;;;20.50;99.90;;;;;;5053019;28;20254;-68
2023/08/12 00:10:57;;;;;;;1.45;1.35;;;20.50;99.90;;;;;;5063242;28;20195;-68
2023/08/12 00:13:25;;;;;;;1.50;1.40;;;20.50;99.90;;;;;;5064937;28;20239;-69
2023/08/12 00:15:53;;;;;;;1.75;1.50;;;20.50;99.90;;;;;;5061384;28;20209;-69
2023/08/12 00:18:23;;;;;;;1.20;1.10;;;20.50;99.90;;;;;;5052939;28;20209;-68
2023/08/12 00:20:51;;;;;;;1.23;1.13;;;20.50;99.90;;;;;;5060919;28;20750;-68
2023/08/12 00:23:19;;;;;;;1.70;1.60;;;20.50;99.90;;;;;;5053003;28;20212;-68
2023/08/12 00:25:50;;;;;;;1.35;1.25;;;20.50;99.90;;;;;;5053781;28;20216;-68
2023/08/12 00:28:18;;;;;;;1.52;1.30;;;20.50;99.90;;;;;;5059690;28;20384;-68
2023/08/12 00:30:49;;;;;;;1.60;1.50;;;20.50;99.90;;;;;;5061684;28;20215;-67
2023/08/12 00:33:18;;;;;;;1.50;1.40;;;20.50;99.90;;;;;;5052638;28;20216;-68
2023/08/12 00:35:47;;;;;;;2.72;1.77;;;20.50;99.90;;;;;;5052511;28;20219;-68
2023/08/12 00:38:15;;;;;;;1.48;1.38;;;20.50;99.90;;;;;;5052332;28;20208;-68
2023/08/12 00:40:43;;;;;;;1.20;1.10;;;20.50;99.90;;;;;;5062053;28;20228;-68
2023/08/12 00:43:11;;;;;;;3.88;1.42;;;20.50;99.90;;;;;;5066428;28;20188;-68
2023/08/12 00:45:39;;;;;;;1.77;1.67;;;20.50;99.90;;;;;;5060432;28;20204;-68
2023/08/12 00:48:09;;;;;;;1.30;1.20;;;20.50;99.90;;;;;;5052070;28;20651;-68
2023/08/12 00:50:42;;;;;;;2.95;1.35;;;20.40;99.90;;;;;;5060294;28;20664;-67
2023/08/12 00:53:13;;;;;;;1.60;1.50;;;20.40;99.90;;;;;;5052092;28;20201;-68
2023/08/12 00:55:41;;;;;;;1.50;1.40;;;20.50;99.90;;;;;;5053305;28;20215;-68
2023/08/12 00:58:09;;;;;;;1.23;1.13;;;20.50;99.90;;;;;;5058634;28;20212;-67
2023/08/12 01:00:38;;;;;;;1.92;1.80;;;20.50;99.90;;;;;;5051707;28;20230;-67
2023/08/12 01:03:07;;;;;;;2.40;2.20;;;20.60;99.90;;;;;;5060598;28;20468;-68
2023/08/12 01:05:35;;;;;;;1.77;1.67;;;20.60;99.90;;;;;;5051989;28;20205;-68
2023/08/12 01:08:06;;;;;;;1.88;1.70;;;20.60;99.90;;;;;;5051901;28;20200;-68
2023/08/12 01:10:40;;;;;;;1.40;1.30;;;20.60;99.90;;;;;;5067025;28;20201;-68
2023/08/12 01:13:20;;;;;;;4.70;1.60;;;20.70;99.90;;;;;;5066748;28;20196;-68
2023/08/12 01:15:52;;;;;;;2.35;1.40;;;20.70;99.90;;;;;;5053188;28;20212;-68
2023/08/12 01:18:20;;;;;;;2.20;2.00;;;20.70;99.90;;;;;;5056877;28;20216;-68
2023/08/12 01:20:48;;;;;;;1.52;1.15;;;20.70;99.90;;;;;;5051156;28;20221;-68
2023/08/12 01:23:19;;;;;;;1.40;1.30;;;20.70;99.90;;;;;;5057381;28;20204;-68
2023/08/12 01:25:47;;;;;;;2.00;1.85;;;20.80;99.90;;;;;;5053316;28;20209;-68
2023/08/12 01:28:15;;;;;;;1.65;1.55;;;20.90;99.90;;;;;;5057337;28;20209;-68
2023/08/12 01:30:52;;;;;;;2.67;1.80;;;20.90;99.90;;;;;;5053604;28;20706;-68
2023/08/12 01:33:30;;;;;;;1.65;1.38;;;20.90;99.90;;;;;;5051315;28;20214;-68
2023/08/12 01:36:07;;;;;;;1.42;1.25;;;21.00;99.90;;;;;;5051405;28;20199;-68
2023/08/12 01:38:46;;;;;;;1.55;1.45;;;21.00;99.90;;;;;;5051321;28;20572;-68
2023/08/12 01:41:16;;;;;;;1.73;1.63;;;21.00;99.90;;;;;;5063832;28;20224;-67
2023/08/12 01:43:44;;;;;;;1.90;1.80;;;21.00;99.90;;;;;;5070008;28;20223;-68
2023/08/12 01:46:12;;;;;;;1.50;1.40;;;21.00;99.90;;;;;;5051768;28;20208;-68
2023/08/12 01:48:40;;;;;;;1.65;1.52;;;21.00;99.90;;;;;;5059393;28;20229;-68
2023/08/12 01:51:08;;;;;;;1.63;1.52;;;21.10;99.90;;;;;;5059686;28;20216;-67
2023/08/12 01:53:36;;;;;;;1.58;1.25;;;21.10;99.90;;;;;;5060019;28;20261;-69
2023/08/12 01:56:05;;;;;;;1.70;1.60;;;21.10;99.90;;;;;;5051296;28;20660;-67
2023/08/12 01:58:33;;;;;;;2.40;1.95;;;21.10;99.90;;;;;;5058803;28;20207;-68
2023/08/12 02:01:01;;;;;;;1.98;1.70;;;21.10;99.90;;;;;;5050956;28;20224;-68
2023/08/12 02:03:29;;;;;;;1.40;1.30;;;21.10;99.90;;;;;;5051248;28;20233;-68
2023/08/12 02:05:57;;;;;;;1.38;1.27;;;21.10;99.90;;;;;;5059405;28;20216;-68
2023/08/12 02:08:25;;;;;;;1.25;1.10;;;21.10;99.90;;;;;;5059429;28;20265;-68
2023/08/12 02:10:53;;;;;;;2.33;1.45;;;21.10;99.90;;;;;;5060779;28;20845;-68
2023/08/12 02:13:23;;;;;;;1.42;1.20;;;21.10;99.90;;;;;;5071055;28;20212;-68
2023/08/12 02:15:50;;;;;;;1.60;1.33;;;21.00;99.90;;;;;;5053144;28;20213;-68
2023/08/12 02:18:18;;;;;;;1.15;1.00;;;21.10;99.90;;;;;;5051326;28;20213;-68
2023/08/12 02:20:48;;;;;;;1.92;1.83;;;21.10;99.90;;;;;;5051141;28;20642;-67
2023/08/12 02:23:16;;;;;;;1.73;1.63;;;21.10;99.90;;;;;;5059058;28;20215;-68
2023/08/12 02:25:48;;;;;;;1.40;1.30;;;21.10;99.90;;;;;;5052322;28;20208;-68
2023/08/12 02:28:16;;;;;;;1.80;1.70;;;21.00;99.90;;;;;;5062101;28;20223;-67
2023/08/12 02:30:45;;;;;;;1.63;1.52;;;21.00;99.90;;;;;;5063081;28;20203;-68
2023/08/12 02:33:13;;;;;;;1.73;1.63;;;20.90;99.90;;;;;;5059361;28;20576;-68
2023/08/12 02:35:41;;;;;;;3.08;1.25;;;21.00;99.90;;;;;;5058479;28;20216;-67
2023/08/12 02:38:09;;;;;;;2.08;1.80;;;21.00;99.90;;;;;;5054645;28;20208;-67
2023/08/12 02:40:36;;;;;;;1.48;1.38;;;21.10;99.90;;;;;;5070428;28;20638;-68
2023/08/12 02:43:04;;;;;;;1.73;1.55;;;21.00;99.90;;;;;;5062957;28;20212;-68
2023/08/12 02:45:33;;;;;;;1.30;1.20;;;21.20;99.90;;;;;;5063006;28;20208;-68
2023/08/12 02:48:02;;;;;;;1.80;1.63;;;21.20;99.90;;;;;;5054491;28;20205;-67
2023/08/12 02:50:30;;;;;;;2.80;2.20;;;21.20;99.90;;;;;;5054721;28;20269;-67
2023/08/12 02:52:58;;;;;;;1.75;1.60;;;21.20;99.90;;;;;;5056699;28;20576;-68
2023/08/12 02:55:26;;;;;;;1.70;1.60;;;21.20;99.90;;;;;;5060194;28;20240;-67
2023/08/12 02:57:54;;;;;;;1.80;1.70;;;21.20;99.90;;;;;;5062787;28;20228;-68
2023/08/12 03:00:22;;;;;;;1.40;1.10;;;21.10;99.90;;;;;;5059910;28;20295;-68
2023/08/12 03:02:50;;;;;;;2.20;2.00;;;21.10;99.90;;;;;;5056689;28;20201;-68
2023/08/12 03:05:20;;;;;;;1.50;1.40;;;21.10;99.90;;;;;;5055036;28;20217;-68
2023/08/12 03:07:48;;;;;;;1.48;1.38;;;21.20;99.90;;;;;;5054871;28;20192;-68
2023/08/12 03:10:16;;;;;;;2.20;1.85;;;21.00;99.90;;;;;;5059409;28;20201;-68
2023/08/12 03:12:44;;;;;;;1.50;1.40;;;21.00;99.90;;;;;;5065434;28;20199;-70
2023/08/12 03:15:12;;;;;;;1.92;1.83;;;21.00;99.90;;;;;;5054309;28;20698;-69
2023/08/12 03:17:41;;;;;;;2.47;2.15;;;20.80;99.90;;;;;;5054283;28;20208;-70
2023/08/12 03:20:10;;;;;;;2.28;2.00;;;20.80;99.90;;;;;;5062366;28;20197;-69
2023/08/12 03:22:39;;;;;;;2.00;1.52;;;20.80;99.90;;;;;;5053775;28;20221;-70
2023/08/12 03:25:08;;;;;;;2.13;2.00;;;20.70;99.90;;;;;;5053221;28;20254;-69
2023/08/12 03:27:36;;;;;;;1.83;1.73;;;20.70;99.90;;;;;;5053822;28;20205;-70
2023/08/12 03:30:04;;;;;;;2.65;2.42;;;20.70;99.90;;;;;;5061560;28;20208;-69
2023/08/12 03:32:32;;;;;;;2.10;1.85;;;20.70;99.90;;;;;;5053688;28;20197;-71
2023/08/12 03:35:01;;;;;;;2.40;2.20;;;20.60;99.90;;;;;;5055677;28;20569;-70
2023/08/12 03:37:29;;;;;;;2.17;1.90;;;20.70;99.90;;;;;;5059735;28;20213;-69
2023/08/12 03:39:58;;;;;;;3.40;3.10;;;20.60;99.90;;;;;;5055150;28;20211;-70
2023/08/12 03:42:26;;;;;;;3.30;2.97;;;20.50;99.90;;;;;;5068164;28;20589;-69
2023/08/12 03:44:54;;;;;;;3.10;2.80;;;20.50;99.90;;;;;;5062121;28;20225;-70
2023/08/12 03:47:24;;;;;;;5.50;3.70;;;20.50;99.90;;;;;;5053589;28;20217;-70
2023/08/12 03:49:52;;;;;;;2.65;2.42;;;20.50;99.90;;;;;;5053406;28;20220;-70
2023/08/12 03:52:20;;;;;;;3.40;3.10;;;20.40;99.90;;;;;;5053653;28;20223;-71
2023/08/12 03:54:48;;;;;;;3.40;3.10;;;20.40;99.90;;;;;;5053579;28;20251;-70
2023/08/12 03:57:17;;;;;;;3.70;2.85;;;20.30;99.90;;;;;;5054047;28;20219;-70
2023/08/12 03:59:45;;;;;;;2.78;2.47;;;20.40;99.90;;;;;;5062148;28;20216;-70
2023/08/12 04:02:13;;;;;;;2.53;2.33;;;20.40;99.90;;;;;;5061395;28;20209;-70
2023/08/12 04:04:43;;;;;;;2.50;2.30;;;20.30;99.90;;;;;;5061710;28;20228;-71
2023/08/12 04:07:11;;;;;;;3.45;3.15;;;20.30;99.90;;;;;;5053058;28;20693;-71
2023/08/12 04:09:40;;;;;;;2.75;2.55;;;20.20;99.90;;;;;;5061267;28;20629;-70
2023/08/12 04:12:08;;;;;;;2.58;2.30;;;20.20;99.90;;;;;;5052887;28;20212;-70
2023/08/12 04:14:37;;;;;;;3.08;2.88;;;20.30;99.90;;;;;;5059689;28;20243;-70
2023/08/12 04:17:05;;;;;;;2.53;2.33;;;20.40;99.90;;;;;;5054318;28;20208;-70
2023/08/12 04:19:33;;;;;;;2.60;2.28;;;20.50;99.90;;;;;;5052915;28;20208;-71
2023/08/12 04:22:01;;;;;;;3.03;2.65;;;20.50;99.90;;;;;;5060872;28;20231;-70
2023/08/12 04:24:29;;;;;;;4.07;3.67;;;20.50;99.90;;;;;;5052736;28;20282;-70
2023/08/12 04:26:57;;;;;;;2.60;2.40;;;20.50;99.90;;;;;;5060880;28;20624;-71
2023/08/12 04:29:25;;;;;;;2.50;2.30;;;20.50;99.90;;;;;;5052736;28;20201;-70
2023/08/12 04:31:54;;;;;;;2.83;2.50;;;20.50;99.90;;;;;;5060916;28;20685;-70
2023/08/12 04:34:22;;;;;;;2.08;1.88;;;20.50;99.90;;;;;;5053011;28;20229;-70
2023/08/12 04:36:50;;;;;;;2.60;2.40;;;20.50;99.90;;;;;;5061496;28;20680;-69
2023/08/12 04:39:18;;;;;;;3.22;2.78;;;20.50;99.90;;;;;;5053013;28;20212;-70
2023/08/12 04:41:46;;;;;;;1.80;1.70;;;20.50;99.90;;;;;;5069046;28;20212;-70
2023/08/12 04:44:14;;;;;;;2.25;2.15;;;20.50;99.90;;;;;;5072557;28;20698;-70
2023/08/12 04:46:42;;;;;;;2.40;2.20;;;20.50;99.90;;;;;;5073185;28;20204;-70
2023/08/12 04:49:11;;;;;;;2.75;2.55;;;20.50;99.90;;;;;;5072676;28;20211;-70
2023/08/12 04:51:39;;;;;;;2.05;1.85;;;20.40;99.90;;;;;;5071690;28;20200;-70
2023/08/12 04:54:07;;;;;;;2.50;2.30;;;20.50;99.90;;;;;;5072688;28;20228;-70
2023/08/12 04:56:35;;;;;;;2.35;2.25;;;20.50;99.90;;;;;;5073002;28;20218;-70
2023/08/12 04:59:04;;;;;;;2.88;2.63;;;20.50;99.90;;;;;;5071982;28;20693;-70
2023/08/12 05:01:31;;;;;;;1.70;1.60;;;20.40;99.90;;;;;;5071951;28;20254;-70
2023/08/12 05:03:59;;;;;;;2.70;2.53;;;20.40;99.90;;;;;;5071865;28;20776;-70
2023/08/12 05:06:29;;;;;;;3.33;2.88;;;20.50;99.90;;;;;;5072209;28;20654;-70
2023/08/12 05:08:57;;;;;;;2.20;2.00;;;20.50;99.90;;;;;;5071633;28;20208;-70
2023/08/12 05:11:25;;;;;;;2.05;1.95;;;20.50;99.90;;;;;;5072268;28;20670;-70
2023/08/12 05:13:52;;;;;;;2.00;1.60;;;20.50;99.90;;;;;;5063773;28;20265;-71
2023/08/12 05:16:20;;;;;;;2.28;2.08;;;20.50;99.90;;;;;;5052219;28;20356;-70
2023/08/12 05:18:48;;;;;;;2.80;2.22;;;20.50;99.90;;;;;;5052007;28;20228;-70
2023/08/12 05:21:16;;;;;;;2.70;2.50;;;20.40;99.90;;;;;;5051698;28;20204;-70
2023/08/12 05:23:45;;;;;;;2.38;2.15;;;20.30;99.90;;;;;;5051364;28;20719;-70
2023/08/12 05:26:14;;;;;;;1.98;1.83;;;20.40;99.90;;;;;;5051628;28;20205;-70
2023/08/12 05:28:42;;;;;;;1.90;1.80;;;20.50;99.90;;;;;;5051501;28;20205;-70
2023/08/12 05:31:09;;;;;;;2.38;2.20;;;20.50;99.90;;;;;;5051879;28;20578;-70
2023/08/12 05:33:37;;;;;;;1.75;1.65;;;20.60;99.90;;;;;;5057506;28;20231;-70
2023/08/12 05:36:05;;;;;;;1.77;1.63;;;20.60;99.90;;;;;;5056037;28;20254;-70
2023/08/12 05:38:33;;;;;;;2.38;2.17;;;20.60;99.90;;;;;;5058753;28;20258;-71
2023/08/12 05:41:06;;;;;;;2.72;2.53;;;20.60;99.90;;;;;;5063152;28;20295;-70
2023/08/12 05:43:34;;;;;;;2.20;2.10;;;20.60;99.90;;;;;;5058927;28;20699;-70
2023/08/12 05:46:02;;;;;;;2.53;2.33;;;20.60;99.90;;;;;;5052184;28;20214;-69
2023/08/12 05:48:30;;;;;;;1.98;1.77;;;20.70;99.90;;;;;;5060277;28;20213;-70
2023/08/12 05:50:58;;;;;;;1.90;1.80;;;20.70;99.90;;;;;;5060710;28;20624;-70
2023/08/12 05:53:26;;;;;;;3.60;2.58;;;20.70;99.90;;;;;;5060082;28;20224;-70
2023/08/12 05:55:54;;;;;;;2.60;2.40;;;20.70;99.90;;;;;;5051512;28;20208;-70
2023/08/12 05:58:23;;;;;;;3.08;2.88;;;20.70;99.90;;;;;;5059260;28;20204;-69
2023/08/12 06:00:51;;;;;;;4.03;3.17;;;20.80;99.90;;;;;;5051193;28;20201;-70
2023/08/12 06:03:19;;;;;;;3.08;2.78;;;20.80;99.90;;;;;;5053741;28;20681;-69
2023/08/12 06:05:48;;;;;;;3.00;2.75;;;20.90;99.90;;;;;;5056389;28;20211;-70
2023/08/12 06:08:16;;;;;;;4.00;2.88;;;20.90;99.90;;;;;;5050842;28;20207;-69
2023/08/12 06:10:44;;;;;;;3.17;2.90;;;21.00;99.90;;;;;;5059967;28;20207;-70
2023/08/12 06:13:14;;;;;;;5.03;3.70;;;21.00;99.90;;;;;;5051764;28;21981;-70
2023/08/12 06:15:44;;;;;;;4.53;3.92;;;21.00;99.90;;;;;;5050885;28;20231;-69
2023/08/12 06:18:12;;;;;;;3.20;2.90;;;21.00;99.90;;;;;;5050812;28;20664;-69
2023/08/12 06:20:40;;;;;;;3.50;3.20;;;21.10;99.90;;;;;;5050849;28;20228;-70
2023/08/12 06:23:08;;;;;;;3.70;3.35;;;21.10;99.90;;;;;;5050747;28;20211;-69
2023/08/12 06:25:36;;;;;;;3.20;2.83;;;21.10;99.90;;;;;;5113784;22;20693;-68
2023/08/12 06:28:05;;;;;;;3.05;2.75;;;21.10;99.90;;;;;;5098600;28;20749;-68
2023/08/12 06:30:33;;;;;;;3.35;3.15;;;21.10;99.90;;;;;;5102883;28;20198;-68
2023/08/12 06:33:02;;;;;;;3.97;2.75;;;21.20;99.90;;;;;;5102473;28;20199;-66
2023/08/12 06:35:30;;;;;;;4.13;3.72;;;21.30;99.90;;;;;;5078884;28;20329;-68
2023/08/12 06:37:58;;;;;;;3.47;3.17;;;21.50;99.90;;;;;;5079001;28;20207;-69
2023/08/12 06:40:26;;;;;;;3.85;3.55;;;21.50;99.90;;;;;;5078679;28;20204;-70
2023/08/12 06:42:54;;;;;;;2.78;2.58;;;21.60;99.90;;;;;;5070100;28;20302;-68
2023/08/12 06:45:22;;;;;;;2.40;2.13;;;21.80;99.90;;;;;;5078592;28;20218;-69
2023/08/12 06:47:50;;;;;;;3.58;3.20;;;22.00;99.90;;;;;;5078890;28;20208;-68
2023/08/12 06:50:19;;;;;;;5.32;3.15;;;22.20;99.90;;;;;;5080582;28;20235;-68
2023/08/12 06:52:47;;;;;;;2.83;2.50;;;22.20;99.90;;;;;;5082124;28;20215;-67
2023/08/12 06:55:15;;;;;;;3.05;2.72;;;22.20;99.90;;;;;;5080772;28;20224;-68
2023/08/12 06:57:43;;;;;;;3.58;2.28;;;22.20;99.90;;;;;;5078824;28;20616;-69
2023/08/12 07:00:12;;;;;;;2.53;2.33;;;22.20;99.90;;;;;;5079450;28;20200;-69
2023/08/12 07:02:42;;;;;;;3.35;2.08;;;22.20;99.90;;;;;;5081989;28;20562;-68
2023/08/12 07:05:10;;;;;;;2.70;2.50;;;22.20;99.90;;;;;;5081186;28;20293;-69
2023/08/12 07:07:40;;;;;;;2.95;2.20;;;22.50;99.90;;;;;;5078676;28;20573;-68
2023/08/12 07:10:08;;;;;;;2.58;2.38;;;22.70;99.90;;;;;;5078295;28;20600;-68
2023/08/12 07:12:36;;;;;;;2.00;1.90;;;22.80;99.90;;;;;;5070071;28;20204;-68
2023/08/12 07:15:05;;;;;;;3.67;2.63;;;22.90;99.90;;;;;;5081653;28;20215;-68
2023/08/12 07:17:33;;;;;;;2.40;2.20;;;22.90;99.90;;;;;;5074421;28;20663;-68
2023/08/12 07:20:01;;;;;;;2.83;2.63;;;23.00;99.90;;;;;;5081970;28;20203;-69
2023/08/12 07:22:29;;;;;;;2.70;2.35;;;23.00;99.90;;;;;;5078957;28;20205;-69
2023/08/12 07:24:59;;;;;;;2.80;2.60;;;23.00;99.90;;;;;;5077187;28;20223;-68
2023/08/12 07:27:27;;;;;;;2.20;2.00;;;23.00;99.90;;;;;;5085140;28;20223;-68
2023/08/12 07:29:56;;;;;;;2.42;2.22;;;23.10;99.90;;;;;;5085433;28;20203;-68
2023/08/12 07:32:23;;;;;;;1.80;1.70;;;23.20;99.90;;;;;;5083131;28;20247;-69
2023/08/12 07:34:51;;;;;;;2.13;2.03;;;23.30;99.90;;;;;;5081672;28;20248;-69
2023/08/12 07:37:19;;;;;;;1.98;1.88;;;23.60;99.90;;;;;;5083724;28;20216;-68
2023/08/12 07:39:47;;;;;;;3.63;2.78;;;23.80;99.90;;;;;;5084157;28;20250;-68
2023/08/12 07:42:17;;;;;;;2.85;2.55;;;24.00;99.90;;;;;;5073300;28;20213;-69
2023/08/12 07:44:45;;;;;;;3.50;2.67;;;24.00;99.90;;;;;;5078200;28;20231;-69
2023/08/12 07:47:13;;;;;;;2.00;1.90;;;24.10;99.90;;;;;;5084410;28;20206;-68
2023/08/12 07:49:41;;;;;;;2.00;1.80;;;24.10;99.90;;;;;;5081651;28;20267;-69
2023/08/12 07:52:09;;;;;;;2.33;2.13;;;24.40;99.90;;;;;;5081760;28;20581;-69
2023/08/12 07:54:37;;;;;;;3.33;3.03;;;24.50;99.90;;;;;;5073461;28;20229;-69
2023/08/12 07:57:05;;;;;;;2.47;2.28;;;24.50;99.90;;;;;;5081685;28;20686;-69
2023/08/12 07:59:34;;;;;;;2.78;2.10;;;24.50;99.90;;;;;;5084520;28;20201;-69
2023/08/12 08:02:03;;;;;;;2.13;2.00;;;24.50;99.90;;;;;;5084901;28;20216;-69
2023/08/12 08:04:31;;;;;;;3.90;2.45;;;24.50;99.90;;;;;;5081627;28;20233;-69
2023/08/12 08:06:58;;;;;;;2.03;1.83;;;24.40;99.90;;;;;;5081496;28;20669;-69
2023/08/12 08:09:26;;;;;;;1.85;1.70;;;24.40;99.90;;;;;;5083318;28;20217;-69
2023/08/12 08:11:54;;;;;;;2.78;2.58;;;24.40;99.90;;;;;;5074351;28;20197;-69
2023/08/12 08:14:24;;;;;;;2.33;2.13;;;24.40;99.90;;;;;;5074014;28;20289;-69
2023/08/12 08:16:53;;;;;;;3.15;2.90;;;24.30;99.90;;;;;;5084882;28;20600;-69
2023/08/12 08:19:22;;;;;;;3.10;2.85;;;24.20;99.90;;;;;;5083160;28;20557;-69
2023/08/12 08:21:57;;;;;;;3.20;2.90;;;24.30;99.90;;;;;;5081320;28;20223;-69
2023/08/12 08:24:25;;;;;;;2.88;2.58;;;24.30;99.90;;;;;;5081878;28;20599;-69
2023/08/12 08:26:53;;;;;;;4.75;2.40;;;24.60;99.90;;;;;;5084404;28;20217;-69
2023/08/12 08:29:22;;;;;;;2.92;2.72;;;24.70;99.90;;;;;;5082957;28;20211;-69
2023/08/12 08:31:53;;;;;;;2.50;2.30;;;24.90;99.90;;;;;;5080961;28;20208;-69
2023/08/12 08:34:21;;;;;;;3.05;2.83;;;24.90;99.90;;;;;;5081473;28;20237;-69
2023/08/12 08:36:49;;;;;;;3.78;3.08;;;25.10;99.90;;;;;;5084363;28;20208;-69
2023/08/12 08:39:17;;;;;;;2.10;2.00;;;25.20;99.90;;;;;;5083371;28;20201;-70
2023/08/12 08:41:49;;;;;;;2.67;2.40;;;25.40;99.90;;;;;;5071615;28;20224;-69
2023/08/12 08:44:21;;;;;;;2.63;2.33;;;25.60;99.90;;;;;;5080577;28;20227;-69
2023/08/12 08:46:52;;;;;;;3.05;2.80;;;25.80;99.90;;;;;;5084148;28;20201;-69
2023/08/12 08:49:23;;;;;;;2.38;2.20;;;26.20;99.90;;;;;;5082958;28;20217;-69
2023/08/12 08:51:53;;;;;;;3.10;2.90;;;26.30;99.90;;;;;;5080494;28;20209;-69
2023/08/12 08:54:21;;;;;;;2.67;2.47;;;26.20;99.90;;;;;;5080762;28;20763;-69
2023/08/12 08:56:50;;;;;;;2.95;2.67;;;26.10;99.90;;;;;;5084050;28;20258;-69
2023/08/12 08:59:24;;;;;;;2.40;2.17;;;26.00;99.90;;;;;;5082600;28;20206;-71
2023/08/12 09:01:52;;;;;;;1.70;1.60;;;25.90;99.90;;;;;;5080871;28;20212;-70
2023/08/12 09:04:23;;;;;;;2.00;1.90;;;25.80;99.90;;;;;;5080335;28;20327;-67
2023/08/12 09:06:53;;;;;;;2.53;2.33;;;25.80;99.90;;;;;;5083716;28;20229;-67
2023/08/12 09:09:23;;;;;;;1.85;1.75;;;25.60;99.90;;;;;;5082743;28;20205;-69
2023/08/12 09:11:53;;;;;;;2.20;2.00;;;25.50;99.90;;;;;;5072136;28;20266;-69
2023/08/12 09:14:21;;;;;;;2.58;2.45;;;25.50;99.90;;;;;;5080288;28;20226;-69
2023/08/12 09:16:49;;;;;;;2.67;2.47;;;25.50;99.90;;;;;;5083381;28;20204;-69
2023/08/12 09:19:17;;;;;;;5.40;2.50;;;25.50;99.90;;;;;;5083370;28;20213;-71
2023/08/12 09:21:53;;;;;;;2.60;2.40;;;25.40;99.90;;;;;;5072208;28;20205;-70
2023/08/12 09:24:25;;;;;;;3.17;2.60;;;25.40;99.90;;;;;;5079699;28;20244;-70
2023/08/12 09:26:53;;;;;;;3.65;3.35;;;25.30;99.90;;;;;;5083408;28;20213;-72
2023/08/12 09:29:24;;;;;;;3.28;3.05;;;25.40;99.90;;;;;;5082554;28;20210;-70
2023/08/12 09:31:52;;;;;;;2.50;2.30;;;25.50;99.90;;;;;;5080128;28;20206;-69
2023/08/12 09:34:20;;;;;;;3.05;2.75;;;25.60;99.90;;;;;;5079682;28;20219;-70
2023/08/12 09:36:49;;;;;;;3.25;3.05;;;25.70;99.90;;;;;;5083014;28;20663;-69
2023/08/12 09:39:18;;;;;;;3.38;3.10;;;25.90;99.90;;;;;;5083047;28;20213;-69
2023/08/12 09:41:46;;;;;;;2.33;2.13;;;26.20;99.90;;;;;;5073766;28;20251;-70
2023/08/12 09:44:14;;;;;;;2.35;2.15;;;26.40;99.90;;;;;;5079085;28;20226;-70
2023/08/12 09:46:42;;;;;;;3.10;2.90;;;26.70;99.90;;;;;;5082636;28;20208;-69
2023/08/12 09:49:10;;;;;;;2.15;1.95;;;26.90;99.90;;;;;;5083134;28;20691;-69
2023/08/12 09:51:40;;;;;;;1.95;1.80;;;27.10;99.90;;;;;;5080418;28;20604;-70
2023/08/12 09:54:11;;;;;;;1.88;1.75;;;27.20;99.90;;;;;;5079203;28;20227;-69
2023/08/12 09:56:45;;;;;;;1.73;1.63;;;27.10;99.90;;;;;;5082248;28;20203;-69
2023/08/12 09:59:15;;;;;;;1.52;1.42;;;26.80;99.90;;;;;;5082670;28;20198;-69
2023/08/12 10:01:45;;;;;;;1.33;1.23;;;26.70;99.90;;;;;;5079664;28;20210;-71
2023/08/12 10:04:18;;;;;;;1.45;1.35;;;26.40;99.90;;;;;;5078980;28;20223;-70
2023/08/12 10:06:47;;;;;;;1.50;1.40;;;26.10;99.90;;;;;;5082737;28;20246;-70
2023/08/12 10:09:18;;;;;;;1.65;1.55;;;25.90;99.90;;;;;;5082654;28;20767;-70
2023/08/12 10:11:47;;;;;;;3.60;1.95;;;25.70;99.90;;;;;;5070711;28;20210;-70
2023/08/12 10:14:16;;;;;;;2.95;2.17;;;25.50;99.90;;;;;;5078923;28;20230;-69
2023/08/12 10:16:47;;;;;;;2.17;1.98;;;25.30;99.90;;;;;;5082082;28;20209;-69
2023/08/12 10:19:17;;;;;;;2.15;2.05;;;24.90;99.90;;;;;;5082420;28;20208;-70
2023/08/12 10:21:47;;;;;;;1.80;1.70;;;24.70;99.90;;;;;;5079265;28;20212;-69
2023/08/12 10:24:17;;;;;;;2.40;2.20;;;24.50;99.90;;;;;;5078712;28;20220;-69
2023/08/12 10:26:46;;;;;;;1.92;1.70;;;24.30;99.90;;;;;;5081967;28;20224;-69
2023/08/12 10:29:14;;;;;;;2.50;1.92;;;24.20;99.90;;;;;;5082333;28;20216;-69
2023/08/12 10:31:44;;;;;;;2.15;2.00;;;24.10;99.90;;;;;;5079665;28;20228;-69
2023/08/12 10:34:20;;;;;;;2.63;2.42;;;23.90;99.90;;;;;;5079245;28;20885;-69
2023/08/12 10:36:48;;;;;;;2.80;2.60;;;23.80;99.90;;;;;;5082194;28;20204;-69
2023/08/12 10:39:33;;;;;;;2.83;2.35;;;23.50;99.90;;;;;;5081524;28;20205;-69
2023/08/12 10:42:01;;;;;;;2.38;2.00;;;23.30;99.90;;;;;;5069865;28;20735;-70
2023/08/12 10:44:40;;;;;;;2.47;2.10;;;23.30;99.90;;;;;;5073194;28;20316;-71
2023/08/12 10:47:10;;;;;;;2.28;2.15;;;23.20;99.90;;;;;;5070748;28;20196;-69
2023/08/12 10:49:43;;;;;;;1.67;1.20;;;23.10;99.90;;;;;;5073978;28;20200;-69
2023/08/12 10:52:27;;;;;;;1.67;1.58;;;22.90;99.90;;;;;;5074346;28;20266;-68
2023/08/12 10:55:16;;;;;;;1.85;1.75;;;22.80;99.90;;;;;;5074030;28;20698;-69
2023/08/12 10:57:45;;;;;;;1.60;1.50;;;22.70;99.90;;;;;;5074225;28;20578;-69
2023/08/12 11:00:16;;;;;;;1.45;1.35;;;22.50;99.90;;;;;;5073879;28;20209;-69
2023/08/12 11:02:49;;;;;;;0.98;0.90;;;22.50;99.90;;;;;;5073808;28;20372;-68
2023/08/12 11:05:18;;;;;;;1.67;1.48;;;22.50;99.90;;;;;;5073968;28;20227;-69
2023/08/12 11:07:48;;;;;;;1.73;1.50;;;22.40;99.90;;;;;;5082386;28;24418;-69
2023/08/12 11:10:20;;;;;;;1.33;1.15;;;22.50;99.90;;;;;;5073879;28;20288;-69
2023/08/12 11:12:55;;;;;;;1.35;1.13;;;22.50;99.90;;;;;;5073784;28;20204;-68
2023/08/12 11:15:32;;;;;;;1.40;1.30;;;22.60;99.90;;;;;;5081903;28;20226;-69
2023/08/12 11:18:03;;;;;;;2.75;1.10;;;22.60;99.90;;;;;;5075216;28;20207;-69
2023/08/12 11:20:31;;;;;;;1.17;1.08;;;22.60;99.90;;;;;;5082474;28;20204;-68
2023/08/12 11:23:00;;;;;;;0.82;0.80;;;22.60;99.90;;;;;;5085616;28;20211;-70
2023/08/12 11:25:31;;;;;;;0.80;0.75;;;23.10;99.90;;;;;;5085041;28;20236;-69
2023/08/12 11:27:59;;;;;;;0.80;0.70;;;23.90;99.90;;;;;;5074615;28;20211;-69
2023/08/12 11:30:28;;;;;;;0.63;0.63;;;24.30;99.90;;;;;;5082158;28;20227;-71
2023/08/12 11:33:02;;;;;;;0.85;0.80;;;24.60;99.90;;;;;;5074777;28;20205;-70
2023/08/12 11:35:30;;;;;;;1.02;0.60;;;24.70;99.90;;;;;;5081730;28;20231;-71
2023/08/12 11:37:59;;;;;;;0.70;0.60;;;24.80;99.90;;;;;;5085281;28;20655;-71
2023/08/12 11:40:28;;;;;;;1.70;0.70;;;25.00;99.90;;;;;;5078706;28;20210;-70
2023/08/12 11:43:00;;;;;;;1.33;0.90;;;25.10;99.90;;;;;;5065654;28;20197;-70
2023/08/12 11:45:28;;;;;;;0.93;0.82;;;25.00;99.90;;;;;;5081435;28;20233;-68
2023/08/12 11:47:57;;;;;;;0.90;0.85;;;24.90;99.90;;;;;;5073779;28;20203;-71
2023/08/12 11:50:27;;;;;;;1.30;1.20;;;24.90;99.90;;;;;;5081516;28;20213;-70
2023/08/12 11:52:57;;;;;;;1.35;1.20;;;24.40;99.90;;;;;;5084918;28;20207;-69
2023/08/12 11:55:25;;;;;;;0.85;0.73;;;24.30;99.90;;;;;;5084926;28;20232;-71
2023/08/12 11:57:53;;;;;;;1.30;1.20;;;24.20;99.90;;;;;;5081701;28;20201;-70
2023/08/12 12:00:26;;;;;;;1.40;1.30;;;24.10;99.90;;;;;;5080778;28;20212;-70
2023/08/12 12:02:56;;;;;;;1.10;1.02;;;23.90;99.90;;;;;;5084274;28;20248;-70
2023/08/12 12:05:26;;;;;;;1.13;1.02;;;23.70;99.90;;;;;;5084831;28;20223;-69
2023/08/12 12:07:54;;;;;;;1.10;1.00;;;23.50;99.90;;;;;;5081637;28;20204;-69
2023/08/12 12:10:27;;;;;;;1.25;1.15;;;23.30;99.90;;;;;;5081159;28;20205;-70
2023/08/12 12:13:00;;;;;;;1.00;0.90;;;23.10;99.90;;;;;;5073310;28;20641;-69
2023/08/12 12:15:30;;;;;;;2.22;1.20;;;23.00;99.90;;;;;;5080836;28;20232;-69
2023/08/12 12:17:58;;;;;;;1.20;1.10;;;22.90;99.90;;;;;;5081252;28;20209;-71
2023/08/12 12:20:29;;;;;;;1.20;1.10;;;23.00;99.90;;;;;;5080984;28;20214;-69
2023/08/12 12:22:57;;;;;;;1.90;1.42;;;22.90;99.90;;;;;;5084323;28;20191;-69
2023/08/12 12:25:25;;;;;;;1.38;1.25;;;22.90;99.90;;;;;;5119241;22;20797;-70
2023/08/12 12:27:54;;;;;;;1.33;1.23;;;22.90;99.90;;;;;;5102153;28;20731;-71
2023/08/12 12:30:22;;;;;;;3.28;1.02;;;23.10;99.90;;;;;;5101319;28;20278;-71
2023/08/12 12:32:51;;;;;;;1.58;1.48;;;23.10;99.90;;;;;;5103362;28;20229;-70
2023/08/12 12:35:20;;;;;;;1.75;1.50;;;23.10;99.90;;;;;;5094660;28;20220;-70
2023/08/12 12:37:48;;;;;;;1.60;1.33;;;23.10;99.90;;;;;;5082322;28;20216;-70
2023/08/12 12:40:17;;;;;;;1.33;1.23;;;23.20;99.90;;;;;;5080611;28;20197;-70
2023/08/12 12:42:44;;;;;;;1.52;1.30;;;23.30;99.90;;;;;;5073947;28;20207;-72
2023/08/12 12:45:12;;;;;;;0.98;0.88;;;23.40;99.90;;;;;;5084530;28;20704;-70
2023/08/12 12:47:40;;;;;;;1.30;1.20;;;23.60;99.90;;;;;;5084563;28;20690;-71
2023/08/12 12:50:10;;;;;;;1.33;1.23;;;23.90;99.90;;;;;;5080898;28;20212;-70
2023/08/12 12:52:38;;;;;;;1.42;1.33;;;24.00;99.90;;;;;;5081430;28;20236;-71
2023/08/12 12:55:09;;;;;;;1.10;1.00;;;24.00;99.90;;;;;;5083971;28;20231;-71
2023/08/12 12:57:37;;;;;;;1.55;1.30;;;24.10;99.90;;;;;;5083395;28;20678;-69